createdAt,value
2023-03-11T00:02:18.845Z,11.90
2023-03-11T00:07:16.444Z,10.66
2023-03-11T00:12:15.933Z,11.48
2023-03-11T00:17:26.913Z,10.71
2023-03-11T00:22:23.810Z,10.69
2023-03-11T00:27:21.947Z,11.24
2023-03-11T00:32:15.970Z,11.70
2023-03-11T00:37:12.548Z,11.05
2023-03-11T00:42:10.458Z,12.20
2023-03-11T00:47:11.314Z,11.25
2023-03-11T00:52:05.345Z,11.05
2023-03-11T00:57:05.756Z,12.40
2023-03-11T01:02:03.576Z,11.33
2023-03-11T01:07:04.028Z,11.90
2023-03-11T01:12:04.003Z,12.72
2023-03-11T01:17:14.700Z,11.55
2023-03-11T01:22:10.851Z,12.24
2023-03-11T01:27:04.763Z,12.95
2023-03-11T01:31:59.533Z,11.58
2023-03-11T01:36:55.322Z,11.87
2023-03-11T01:41:53.232Z,11.36
2023-03-11T01:47:33.828Z,12.24
2023-03-11T01:52:32.393Z,10.65
2023-03-11T01:57:31.760Z,11.00
2023-03-11T02:02:34.007Z,11.28
2023-03-11T02:07:28.621Z,12.67
2023-03-11T02:12:30.433Z,12.50
2023-03-11T02:17:31.091Z,13.02
2023-03-11T02:22:30.336Z,12.15
2023-03-11T02:27:29.895Z,11.44
2023-03-11T02:32:24.659Z,11.94
2023-03-11T02:37:21.332Z,12.29
2023-03-11T02:42:30.062Z,11.03
2023-03-11T02:47:24.837Z,11.74
2023-03-11T02:52:22.060Z,11.50
2023-03-11T02:57:15.826Z,11.32
2023-03-11T03:02:11.587Z,12.17
2023-03-11T03:07:12.941Z,12.17
2023-03-11T03:12:11.752Z,11.10
2023-03-11T03:17:07.365Z,11.78
2023-03-11T03:22:02.603Z,11.34
2023-03-11T03:27:01.654Z,11.54
2023-03-11T03:32:00.793Z,12.77
2023-03-11T03:36:55.733Z,11.63
2023-03-11T03:41:56.310Z,11.41
2023-03-11T03:46:53.318Z,11.13
2023-03-11T03:51:47.373Z,11.91
2023-03-11T03:56:56.236Z,11.58
2023-03-11T04:01:54.026Z,11.06
2023-03-11T04:06:50.303Z,11.64
2023-03-11T04:11:46.953Z,11.37
2023-03-11T04:16:45.182Z,11.93
2023-03-11T04:21:42.744Z,12.76
2023-03-11T04:26:38.213Z,12.16
2023-03-11T04:31:35.840Z,12.52
2023-03-11T04:36:36.817Z,12.87
2023-03-11T04:41:35.740Z,12.28
2023-03-11T04:46:32.341Z,11.87
2023-03-11T04:51:27.890Z,12.91
2023-03-11T04:56:26.506Z,11.91
2023-03-11T05:02:06.150Z,12.90
2023-03-11T05:07:05.878Z,11.55
2023-03-11T05:12:13.066Z,12.15
2023-03-11T05:17:12.994Z,12.18
2023-03-11T05:22:10.973Z,11.72
2023-03-11T05:27:11.581Z,11.62
2023-03-11T05:32:09.366Z,12.16
2023-03-11T05:37:14.527Z,11.17
2023-03-11T05:42:15.067Z,12.41
2023-03-11T05:47:20.681Z,11.14
2023-03-11T05:52:20.569Z,11.64
2023-03-11T05:57:20.119Z,11.59
2023-03-11T06:02:17.503Z,11.82
2023-03-11T06:07:18.527Z,11.24
2023-03-11T06:12:20.869Z,11.31
2023-03-11T06:17:43.134Z,11.97
2023-03-11T06:22:39.692Z,12.52
2023-03-11T06:27:34.896Z,11.36
2023-03-11T06:32:42.744Z,11.86
2023-03-11T06:37:39.627Z,11.57
2023-03-11T06:42:35.677Z,11.33
2023-03-11T06:47:32.115Z,12.73
2023-03-11T06:52:27.585Z,11.94
2023-03-11T06:57:26.322Z,11.77
2023-03-11T07:02:21.476Z,12.58
2023-03-11T07:07:18.877Z,12.10
2023-03-11T07:12:15.085Z,12.89
2023-03-11T07:17:10.897Z,11.99
2023-03-11T07:22:15.490Z,12.58
2023-03-11T07:27:17.830Z,13.10
2023-03-11T07:32:17.977Z,12.84
2023-03-11T07:37:16.638Z,13.14
2023-03-11T07:42:10.696Z,13.38
2023-03-11T07:47:09.070Z,13.57
2023-03-11T07:52:10.388Z,13.06
2023-03-11T07:57:08.906Z,14.16
2023-03-11T08:02:08.485Z,13.39
2023-03-11T08:07:15.487Z,14.13
2023-03-11T08:12:14.694Z,14.46
2023-03-11T08:17:11.846Z,14.81
2023-03-11T08:22:07.217Z,15.26
2023-03-11T08:27:08.652Z,14.38
2023-03-11T08:32:19.980Z,14.16
2023-03-11T08:37:16.232Z,15.58
2023-03-11T08:42:21.116Z,14.26
2023-03-11T08:47:15.227Z,15.40
2023-03-11T08:52:09.447Z,14.55
2023-03-11T08:57:07.589Z,14.35
2023-03-11T09:02:01.527Z,14.32
2023-03-11T09:07:00.945Z,15.13
2023-03-11T09:11:55.874Z,14.56
2023-03-11T09:16:52.409Z,14.85
2023-03-11T09:21:46.861Z,16.52
2023-03-11T09:26:41.154Z,16.07
2023-03-11T09:31:36.705Z,16.81
2023-03-11T09:36:32.400Z,16.87
2023-03-11T09:41:42.376Z,16.23
2023-03-11T09:47:17.141Z,16.99
2023-03-11T09:52:14.212Z,16.41
2023-03-11T09:57:11.272Z,18.00
2023-03-11T10:02:16.314Z,18.24
2023-03-11T10:07:19.374Z,18.17
2023-03-11T10:12:26.122Z,17.15
2023-03-11T10:17:40.396Z,17.00
2023-03-11T10:22:45.044Z,16.88
2023-03-11T10:27:54.130Z,17.46
2023-03-11T10:32:54.809Z,17.51
2023-03-11T10:38:01.538Z,16.90
2023-03-11T10:42:59.356Z,17.11
2023-03-11T10:47:53.856Z,16.86
2023-03-11T10:53:14.962Z,16.69
2023-03-11T10:58:22.721Z,17.58
2023-03-11T11:03:29.808Z,17.37
2023-03-11T11:08:32.918Z,17.93
2023-03-11T11:13:27.755Z,17.65
2023-03-11T11:18:39.112Z,17.72
2023-03-11T11:23:39.579Z,17.89
2023-03-11T11:28:44.963Z,16.78
2023-03-11T11:33:55.715Z,16.94
2023-03-11T11:38:56.065Z,17.30
2023-03-11T11:43:54.001Z,16.39
2023-03-11T11:48:57.249Z,17.34
2023-03-11T11:54:00.390Z,16.92
2023-03-11T11:58:55.686Z,16.04
2023-03-11T12:04:08.662Z,15.97
2023-03-11T12:09:31.555Z,15.59
2023-03-11T12:14:39.103Z,16.44
2023-03-11T12:20:09.918Z,15.61
2023-03-11T12:25:22.498Z,15.74
2023-03-11T12:30:22.017Z,16.53
2023-03-11T12:35:25.966Z,16.60
2023-03-11T12:41:07.410Z,15.93
2023-03-11T12:46:10.997Z,17.12
2023-03-11T12:51:07.100Z,17.01
2023-03-11T12:56:06.946Z,18.29
2023-03-11T13:01:18.534Z,19.34
2023-03-11T13:06:28.067Z,19.83
2023-03-11T13:11:43.943Z,19.98
2023-03-11T13:16:50.663Z,19.68
2023-03-11T13:21:44.776Z,20.74
2023-03-11T13:26:45.507Z,20.79
2023-03-11T13:31:50.092Z,19.85
2023-03-11T13:37:06.013Z,20.50
2023-03-11T13:42:00.640Z,20.52
2023-03-11T13:47:03.239Z,21.40
2023-03-11T13:52:03.182Z,21.46
2023-03-11T13:57:01.034Z,21.52
2023-03-11T14:02:07.384Z,20.76
2023-03-11T14:07:19.261Z,22.30
2023-03-11T14:12:14.648Z,21.11
2023-03-11T14:17:16.060Z,21.05
2023-03-11T14:22:19.140Z,20.22
2023-03-11T14:27:17.360Z,19.11
2023-03-11T14:32:22.502Z,19.24
2023-03-11T14:37:29.158Z,18.84
2023-03-11T14:42:26.961Z,18.49
2023-03-11T14:47:29.563Z,18.11
2023-03-11T14:52:37.944Z,17.06
2023-03-11T14:57:39.249Z,17.01
2023-03-11T15:02:43.280Z,17.22
2023-03-11T15:07:39.803Z,16.43
2023-03-11T15:12:36.449Z,17.35
2023-03-11T15:17:39.505Z,16.31
2023-03-11T15:22:43.870Z,16.13
2023-03-11T15:27:40.567Z,15.93
2023-03-11T15:32:43.254Z,15.52
2023-03-11T15:37:40.321Z,16.32
2023-03-11T15:42:38.321Z,15.86
2023-03-11T15:47:36.501Z,15.35
2023-03-11T15:52:30.633Z,14.96
2023-03-11T15:57:27.761Z,15.80
2023-03-11T16:02:30.498Z,15.37
2023-03-11T16:07:38.597Z,14.89
2023-03-11T16:12:35.650Z,14.62
2023-03-11T16:17:46.869Z,15.29
2023-03-11T16:22:43.185Z,14.96
2023-03-11T16:27:40.670Z,14.78
2023-03-11T16:32:38.025Z,14.61
2023-03-11T16:37:32.090Z,13.36
2023-03-11T16:42:30.304Z,13.48
2023-03-11T16:47:27.467Z,13.71
2023-03-11T16:52:25.185Z,13.96
2023-03-11T16:57:19.283Z,12.96
2023-03-11T17:02:13.591Z,13.13
2023-03-11T17:07:13.278Z,13.58
2023-03-11T17:12:11.589Z,13.51
2023-03-11T17:17:18.357Z,13.32
2023-03-11T17:22:13.891Z,12.86
2023-03-11T17:27:10.262Z,12.44
2023-03-11T17:32:08.878Z,12.42
2023-03-11T17:37:03.030Z,12.72
2023-03-11T17:41:58.301Z,13.44
2023-03-11T17:46:53.902Z,12.05
2023-03-11T17:52:02.050Z,13.07
2023-03-11T17:57:05.879Z,11.22
2023-03-11T18:02:05.526Z,11.71
2023-03-11T18:06:59.440Z,11.80
2023-03-11T18:12:04.422Z,10.67
2023-03-11T18:16:59.947Z,10.41
2023-03-11T18:22:01.518Z,11.28
2023-03-11T18:27:01.939Z,11.38
2023-03-11T18:32:11.212Z,9.63
2023-03-11T18:37:11.698Z,10.57
2023-03-11T18:47:48.260Z,9.57
2023-03-11T18:53:04.003Z,10.69
2023-03-11T18:58:25.005Z,9.24
2023-03-11T19:03:26.501Z,9.62
2023-03-11T19:08:27.470Z,10.48
2023-03-11T19:13:22.973Z,9.80
2023-03-11T19:18:28.302Z,9.61
2023-03-11T19:23:29.549Z,9.22
2023-03-11T19:28:31.777Z,10.14
2023-03-11T19:33:29.390Z,9.21
2023-03-11T19:38:33.566Z,8.80
2023-03-11T19:43:36.716Z,8.42
2023-03-11T19:48:30.604Z,9.24
2023-03-11T19:53:28.766Z,8.43
2023-03-11T19:58:30.064Z,9.46
2023-03-11T20:03:27.820Z,8.66
2023-03-11T20:08:27.413Z,9.29
2023-03-11T20:13:27.831Z,7.65
2023-03-11T20:18:21.986Z,9.16
2023-03-11T20:23:18.734Z,8.30
2023-03-11T20:28:13.386Z,8.02
2023-03-11T20:33:15.537Z,7.41
2023-03-11T20:38:18.808Z,8.28
2023-03-11T20:43:15.749Z,8.91
2023-03-11T20:54:14.832Z,7.20
2023-03-11T20:59:14.475Z,7.20
2023-03-11T21:04:15.192Z,7.36
2023-03-11T21:09:16.157Z,7.29
2023-03-11T21:14:10.504Z,8.27
2023-03-11T21:19:08.514Z,8.13
2023-03-11T21:24:02.266Z,8.19
2023-03-11T21:28:57.996Z,7.81
2023-03-11T21:33:55.942Z,8.15
2023-03-11T21:38:50.914Z,8.07
2023-03-11T21:43:46.124Z,6.34
2023-03-11T21:48:44.589Z,6.63
2023-03-11T21:53:48.113Z,7.88
2023-03-11T21:58:45.000Z,7.56
2023-03-11T22:03:41.833Z,6.27
2023-03-11T22:08:39.290Z,6.32
2023-03-11T22:13:37.398Z,6.51
2023-03-11T22:18:36.312Z,7.07
2023-03-11T22:23:31.901Z,6.24
2023-03-11T22:28:26.109Z,6.16
2023-03-11T22:33:19.825Z,6.00
2023-03-11T22:38:13.782Z,6.59
2023-03-11T22:43:11.605Z,6.32
2023-03-11T22:48:30.384Z,5.81
2023-03-11T22:53:30.396Z,5.87
2023-03-11T22:58:26.922Z,6.16
2023-03-11T23:03:22.538Z,6.34
2023-03-11T23:08:18.065Z,6.93
2023-03-11T23:13:12.937Z,5.97
2023-03-11T23:18:15.078Z,6.88
2023-03-11T23:23:13.132Z,6.38
2023-03-11T23:28:07.631Z,6.36
2023-03-11T23:33:03.207Z,6.07
2023-03-11T23:38:01.431Z,6.70
2023-03-11T23:42:55.629Z,5.36
2023-03-11T23:47:49.531Z,5.66
2023-03-11T23:52:43.858Z,6.44
2023-03-11T23:57:39.767Z,5.41
